Time;durP1;ratioP1;P1;durP2;ratioP2;P2;SDS_P1;SDS_P2;PMS_P1;PMS_P2;Temp;Humidity;BMP_temperature;BMP_pressure;BME280_temperature;BME280_humidity;BME280_pressure;Samples;Min_cycle;Max_cycle;Signal;HPM_P1;HPM_P2
2022/01/27 00:05:24;;;;;;;42.80;16.48;;;;;;;4.36;100.00;102443.13;5068324;28;20056;-73
2022/01/27 00:08:14;;;;;;;40.38;17.55;;;;;;;4.47;100.00;102439.03;5068226;28;20617;-73
2022/01/27 00:10:49;;;;;;;44.25;16.25;;;;;;;4.49;100.00;102438.72;5068574;28;20048;-73
2022/01/27 00:13:19;;;;;;;71.20;27.55;;;;;;;4.43;100.00;102443.53;5068367;28;20056;-73
2022/01/27 00:15:48;;;;;;;53.85;19.73;;;;;;;4.56;100.00;102442.59;5076509;28;20144;-73
2022/01/27 00:18:18;;;;;;;68.10;34.05;;;;;;;4.44;100.00;102445.13;5067562;28;20048;-75
2022/01/27 00:20:48;;;;;;;75.82;35.25;;;;;;;4.44;100.00;102436.91;5067527;28;20072;-74
2022/01/27 00:23:15;;;;;;;56.13;24.73;;;;;;;4.43;100.00;102421.59;5069148;28;20497;-76
2022/01/27 00:25:42;;;;;;;44.38;17.85;;;;;;;4.57;100.00;102425.06;5067639;28;20059;-74
2022/01/27 00:28:09;;;;;;;56.60;22.00;;;;;;;4.49;100.00;102412.09;5068324;28;20057;-73
2022/01/27 00:30:38;;;;;;;60.80;26.58;;;;;;;4.47;100.00;102416.28;5068542;28;20040;-75
2022/01/27 00:33:05;;;;;;;60.47;26.95;;;;;;;4.47;100.00;102392.44;5066140;28;20137;-72
2022/01/27 00:35:32;;;;;;;42.33;15.90;;;;;;;4.51;100.00;102382.44;5070130;28;20047;-74
2022/01/27 00:38:00;;;;;;;62.67;28.90;;;;;;;4.41;100.00;102390.13;5068007;28;20056;-74
2022/01/27 00:40:27;;;;;;;53.90;22.58;;;;;;;4.48;100.00;102379.50;5065511;28;20068;-74
2022/01/27 00:42:54;;;;;;;43.60;20.23;;;;;;;4.49;100.00;102381.16;5066797;28;20136;-76
2022/01/27 00:45:22;;;;;;;37.00;11.80;;;;;;;4.54;100.00;102376.34;5066845;28;20051;-73
2022/01/27 00:47:50;;;;;;;47.20;22.30;;;;;;;4.55;100.00;102361.50;5068074;28;20517;-74
2022/01/27 00:50:18;;;;;;;56.13;22.77;;;;;;;4.54;100.00;102361.81;5067401;28;20153;-74
2022/01/27 00:52:53;;;;;;;51.65;19.83;;;;;;;4.42;100.00;102367.88;5067249;28;20049;-73
2022/01/27 00:55:22;;;;;;;69.65;35.20;;;;;;;4.37;100.00;102389.97;5068545;28;20052;-75
2022/01/27 00:58:22;;;;;;;54.55;23.13;;;;;;;4.49;100.00;102359.22;5067618;28;20080;-74
2022/01/27 01:00:55;;;;;;;64.05;26.13;;;;;;;4.39;100.00;102346.59;5066421;28;20523;-72
2022/01/27 01:03:28;;;;;;;57.67;27.35;;;;;;;4.40;100.00;102348.22;5068948;28;20137;-74
2022/01/27 01:11:32;;;;;;;32.05;14.10;;;;;;;4.48;100.00;102363.88;5065718;28;20119;-75
2022/01/27 01:32:57;;;;;;;59.08;25.20;;;;;;;4.38;100.00;102323.06;5066462;28;20052;-75
2022/01/27 01:35:39;;;;;;;50.08;21.13;;;;;;;4.47;100.00;102331.31;5070410;28;20052;-72
2022/01/27 01:38:06;;;;;;;47.17;21.92;;;;;;;4.35;100.00;102334.66;5067028;28;20059;-72
2022/01/27 01:40:33;;;;;;;61.95;29.08;;;;;;;4.25;100.00;102314.97;5067782;28;20139;-75
2022/01/27 01:42:59;;;;;;;50.58;25.13;;;;;;;4.32;100.00;102348.19;5073112;28;20667;-73
2022/01/27 01:45:33;;;;;;;54.85;24.65;;;;;;;4.35;100.00;102317.38;5068987;28;20164;-73
2022/01/27 01:48:00;;;;;;;44.78;19.27;;;;;;;4.42;100.00;102306.81;5053688;28;20405;-73
2022/01/27 01:50:27;;;;;;;35.72;11.38;;;;;;;4.36;100.00;102310.81;5066778;28;20067;-73
2022/01/27 01:52:54;;;;;;;41.58;17.45;;;;;;;4.36;100.00;102324.50;5068372;28;20423;-74
2022/01/27 01:55:20;;;;;;;41.10;18.00;;;;;;;4.33;100.00;102309.50;5070512;28;20139;-73
2022/01/27 01:57:47;;;;;;;25.23;11.77;;;;;;;4.37;100.00;102335.16;5070569;28;20055;-74
2022/01/27 02:00:14;;;;;;;39.42;16.45;;;;;;;4.38;100.00;102309.34;5071696;28;20102;-73
2022/01/27 02:02:41;;;;;;;57.28;25.52;;;;;;;4.34;100.00;102324.00;5085478;28;20143;-72
2022/01/27 02:05:08;;;;;;;69.28;31.67;;;;;;;4.25;100.00;102342.34;5069198;28;20542;-73
2022/01/27 02:07:53;;;;;;;39.85;15.95;;;;;;;4.34;100.00;102330.31;5070313;28;20059;-73
2022/01/27 02:18:26;;;;;;;54.92;22.73;;;;;;;4.30;100.00;102303.84;5070978;28;20056;-74
2022/01/27 02:20:54;;;;;;;38.78;15.30;;;;;;;4.33;100.00;102292.25;5063369;28;20087;-75
2022/01/27 02:23:21;;;;;;;40.60;17.50;;;;;;;4.28;100.00;102290.47;5070416;28;20082;-75
2022/01/27 02:25:47;;;;;;;62.60;29.35;;;;;;;4.14;100.00;102306.19;5061340;28;20063;-74
2022/01/27 02:28:14;;;;;;;47.38;18.00;;;;;;;4.22;100.00;102308.16;5066183;28;20056;-74
2022/01/27 02:30:40;;;;;;;52.53;21.55;;;;;;;4.19;100.00;102297.81;5069591;28;20084;-75
2022/01/27 02:33:07;;;;;;;49.60;15.82;;;;;;;4.31;100.00;102308.19;5070407;28;20052;-72
2022/01/27 02:35:36;;;;;;;32.60;12.45;;;;;;;4.24;100.00;102285.91;5066993;28;20052;-73
2022/01/27 02:38:02;;;;;;;52.38;20.83;;;;;;;4.25;100.00;102285.59;5070228;28;20052;-73
2022/01/27 02:40:36;;;;;;;32.70;12.65;;;;;;;4.24;100.00;102288.66;5069254;28;20573;-73
2022/01/27 02:43:06;;;;;;;35.20;14.07;;;;;;;4.31;100.00;102291.75;5070273;28;20075;-75
2022/01/27 02:45:39;;;;;;;60.53;27.42;;;;;;;4.18;100.00;102273.47;5069865;28;20056;-73
2022/01/27 02:48:06;;;;;;;52.20;23.35;;;;;;;4.16;100.00;102260.13;5069721;28;20131;-73
2022/01/27 02:50:32;;;;;;;36.40;16.88;;;;;;;4.27;100.00;102242.28;5069263;28;20056;-73
2022/01/27 02:52:59;;;;;;;33.58;14.30;;;;;;;4.23;100.00;102260.47;5063741;28;20075;-73
2022/01/27 02:55:26;;;;;;;34.08;14.23;;;;;;;4.21;100.00;102268.19;5069298;28;20130;-75
2022/01/27 02:57:55;;;;;;;39.95;14.65;;;;;;;4.17;100.00;102261.72;5069043;28;20055;-73
2022/01/27 03:00:26;;;;;;;61.45;25.00;;;;;;;4.07;100.00;102251.06;5068777;28;20095;-76
2022/01/27 03:02:53;;;;;;;55.60;26.95;;;;;;;4.14;100.00;102248.66;5075118;28;20052;-73
2022/01/27 03:05:19;;;;;;;26.63;9.05;;;;;;;4.25;100.00;102252.72;5071235;28;20424;-74
2022/01/27 03:07:48;;;;;;;37.92;14.30;;;;;;;4.23;100.00;102249.50;5070079;28;20052;-71
2022/01/27 03:10:17;;;;;;;34.72;13.43;;;;;;;4.28;100.00;102238.41;5072432;28;20049;-73
2022/01/27 03:12:44;;;;;;;41.58;15.73;;;;;;;4.22;100.00;102242.41;5063249;28;20541;-77
2022/01/27 03:15:11;;;;;;;48.78;18.90;;;;;;;4.22;100.00;102258.84;5075706;28;20147;-70
2022/01/27 03:17:39;;;;;;;49.35;20.92;;;;;;;4.23;100.00;102259.66;5091065;28;20063;-75
2022/01/27 03:20:08;;;;;;;45.53;17.45;;;;;;;4.23;100.00;102252.25;5064173;28;20429;-73
2022/01/27 03:22:35;;;;;;;39.80;14.85;;;;;;;4.27;100.00;102255.97;5074636;28;20044;-74
2022/01/27 03:25:02;;;;;;;56.78;20.48;;;;;;;4.21;100.00;102254.50;5070585;28;20778;-73
2022/01/27 03:27:29;;;;;;;53.97;24.92;;;;;;;4.20;100.00;102241.94;5070069;28;20701;-73
2022/01/27 03:29:56;;;;;;;45.42;16.40;;;;;;;4.28;100.00;102246.63;5070076;28;20535;-74
2022/01/27 03:32:26;;;;;;;45.78;18.67;;;;;;;4.26;100.00;102253.53;5067592;28;20047;-75
2022/01/27 03:34:53;;;;;;;36.58;13.40;;;;;;;4.35;100.00;102232.44;5071323;28;20437;-73
2022/01/27 03:37:20;;;;;;;46.35;15.48;;;;;;;4.33;100.00;102237.44;5070174;28;20048;-72
2022/01/27 03:39:47;;;;;;;42.45;17.33;;;;;;;4.31;100.00;102201.31;5069697;28;20060;-76
2022/01/27 03:42:14;;;;;;;44.42;17.38;;;;;;;4.42;100.00;102210.88;5069431;28;20064;-72
2022/01/27 03:44:40;;;;;;;51.65;22.13;;;;;;;4.30;100.00;102200.53;5068766;28;20056;-73
2022/01/27 03:47:07;;;;;;;50.20;17.33;;;;;;;4.30;100.00;102195.06;5069575;28;20049;-74
2022/01/27 03:49:34;;;;;;;51.63;17.80;;;;;;;4.36;100.00;102190.22;5069790;28;20132;-73
2022/01/27 03:52:01;;;;;;;44.22;16.35;;;;;;;4.38;100.00;102198.91;5069075;28;20450;-76
2022/01/27 03:54:30;;;;;;;40.28;17.67;;;;;;;4.36;100.00;102185.53;5068232;28;20786;-71
2022/01/27 03:56:59;;;;;;;44.25;18.38;;;;;;;4.38;100.00;102186.03;5069770;28;20110;-77
2022/01/27 03:59:26;;;;;;;31.02;15.18;;;;;;;4.36;100.00;102176.53;5069438;28;20090;-73
2022/01/27 04:01:54;;;;;;;35.55;14.23;;;;;;;4.37;100.00;102184.41;5074636;28;20919;-73
2022/01/27 04:04:21;;;;;;;46.97;20.23;;;;;;;4.32;100.00;102192.78;5071891;28;20239;-74
2022/01/27 04:06:51;;;;;;;38.03;15.32;;;;;;;4.38;100.00;102202.47;5068907;28;20138;-74
2022/01/27 04:09:18;;;;;;;34.13;14.73;;;;;;;4.41;100.00;102201.00;5069234;28;20125;-74
2022/01/27 04:11:46;;;;;;;41.70;14.07;;;;;;;4.42;100.00;102183.47;5068884;28;20054;-73
2022/01/27 04:14:12;;;;;;;29.17;13.52;;;;;;;4.45;100.00;102175.38;5068733;28;20513;-72
2022/01/27 04:16:39;;;;;;;40.45;15.73;;;;;;;4.43;100.00;102182.31;5067351;28;20048;-73
2022/01/27 04:19:06;;;;;;;41.53;12.38;;;;;;;4.45;100.00;102186.34;5067586;28;20560;-72
2022/01/27 04:21:32;;;;;;;43.97;16.40;;;;;;;4.43;100.00;102176.84;5083679;28;20099;-74
2022/01/27 04:23:59;;;;;;;55.33;21.77;;;;;;;4.41;100.00;102179.09;5070048;28;20135;-74
2022/01/27 04:26:34;;;;;;;35.72;14.80;;;;;;;4.48;100.00;102165.72;5078644;28;20066;-72
2022/01/27 04:29:01;;;;;;;54.95;23.45;;;;;;;4.42;100.00;102165.06;5067842;28;20153;-73
2022/01/27 04:31:29;;;;;;;50.15;18.92;;;;;;;4.53;100.00;102144.44;5068603;28;20121;-73
2022/01/27 04:33:56;;;;;;;27.05;11.02;;;;;;;4.51;100.00;102146.69;5070382;28;20084;-73
2022/01/27 04:36:29;;;;;;;43.63;15.55;;;;;;;4.46;100.00;102144.09;5070138;28;20743;-73
2022/01/27 04:39:10;;;;;;;42.17;16.67;;;;;;;4.44;100.00;102129.13;5068395;28;20485;-73
2022/01/27 04:41:53;;;;;;;28.10;9.43;;;;;;;4.53;100.00;102127.97;5067698;28;20048;-73
2022/01/27 04:46:57;;;;;;;60.17;24.02;;;;;;;4.46;100.00;102115.91;5061317;28;20497;-74
2022/01/27 04:49:24;;;;;;;46.65;20.60;;;;;;;4.54;100.00;102098.66;5054704;28;20067;-72
2022/01/27 04:51:51;;;;;;;40.45;16.55;;;;;;;4.55;100.00;102101.06;5067203;28;20631;-72
2022/01/27 04:54:30;;;;;;;44.67;19.05;;;;;;;4.55;100.00;102097.50;5068701;28;20501;-75
2022/01/27 04:57:01;;;;;;;24.45;11.20;;;;;;;4.65;100.00;102095.25;5072032;28;20048;-74
2022/01/27 04:59:32;;;;;;;63.25;27.90;;;;;;;4.52;100.00;102098.97;5068281;28;20102;-74
2022/01/27 05:02:04;;;;;;;36.60;15.75;;;;;;;4.64;100.00;102095.56;5066580;28;20055;-73
2022/01/27 05:04:35;;;;;;;52.22;25.83;;;;;;;4.55;100.00;102094.78;5079410;28;20097;-73
2022/01/27 05:07:02;;;;;;;53.60;22.60;;;;;;;4.66;100.00;102072.19;5066911;28;20213;-75
2022/01/27 05:09:29;;;;;;;43.13;20.58;;;;;;;4.68;100.00;102085.56;5068607;28;20052;-72
2022/01/27 05:12:07;;;;;;;45.42;16.90;;;;;;;4.74;100.00;102090.56;5067100;28;20492;-73
2022/01/27 05:14:33;;;;;;;53.05;21.52;;;;;;;4.75;100.00;102094.09;5068516;28;20131;-74
2022/01/27 05:17:00;;;;;;;30.52;10.52;;;;;;;4.85;100.00;102094.59;5067956;28;20193;-74
2022/01/27 05:19:26;;;;;;;39.95;16.77;;;;;;;4.84;100.00;102079.28;5068126;28;20072;-74
2022/01/27 05:21:57;;;;;;;46.53;20.75;;;;;;;4.82;100.00;102070.53;5068122;28;20094;-75
2022/01/27 05:24:24;;;;;;;53.90;22.77;;;;;;;4.83;100.00;102077.63;5068549;28;20461;-73
2022/01/27 05:26:51;;;;;;;36.92;12.55;;;;;;;4.97;100.00;102071.97;5065974;28;20059;-73
2022/01/27 05:29:17;;;;;;;40.50;16.40;;;;;;;4.96;100.00;102060.19;5067935;28;20080;-73
2022/01/27 05:31:44;;;;;;;41.13;18.50;;;;;;;4.93;100.00;102066.31;5082858;28;20066;-72
2022/01/27 05:34:11;;;;;;;42.42;18.55;;;;;;;4.96;100.00;102053.88;5082740;28;20054;-75
2022/01/27 05:36:37;;;;;;;38.30;16.58;;;;;;;5.01;100.00;102061.94;5067677;28;20055;-76
2022/01/27 05:39:05;;;;;;;30.00;10.38;;;;;;;5.10;100.00;102049.00;5067836;28;20520;-73
2022/01/27 05:41:36;;;;;;;31.98;12.90;;;;;;;5.08;100.00;102057.56;5077523;28;20048;-74
2022/01/27 05:44:03;;;;;;;33.30;13.52;;;;;;;5.16;100.00;102064.13;5082059;28;20101;-75
2022/01/27 05:46:30;;;;;;;21.17;8.40;;;;;;;5.15;100.00;102059.78;5083405;28;20418;-72
2022/01/27 05:48:57;;;;;;;35.00;13.73;;;;;;;5.09;100.00;102039.97;5066975;28;20052;-75
2022/01/27 05:51:23;;;;;;;48.53;17.27;;;;;;;5.07;100.00;102042.22;5064880;28;20072;-77
2022/01/27 05:53:50;;;;;;;46.65;16.45;;;;;;;5.06;100.00;102032.41;5067471;28;20123;-73
2022/01/27 05:56:16;;;;;;;32.85;14.10;;;;;;;5.08;100.00;102023.84;5066562;28;20045;-75
2022/01/27 05:58:48;;;;;;;44.35;17.02;;;;;;;5.10;100.00;102022.38;5067063;28;20059;-74
2022/01/27 06:01:14;;;;;;;45.85;19.80;;;;;;;5.10;100.00;102008.66;5067418;28;20055;-74
2022/01/27 06:03:42;;;;;;;45.65;19.23;;;;;;;5.07;100.00;102005.78;5073218;28;20060;-72
2022/01/27 06:06:08;;;;;;;49.85;22.52;;;;;;;5.10;100.00;102000.41;5066698;28;20056;-74
2022/01/27 06:08:35;;;;;;;24.00;8.60;;;;;;;5.20;100.00;102011.03;5067529;28;20059;-74
2022/01/27 06:11:02;;;;;;;48.00;18.75;;;;;;;5.15;100.00;102015.91;5067391;28;20148;-75
2022/01/27 06:13:28;;;;;;;46.25;19.55;;;;;;;5.18;100.00;102007.81;5067776;28;20071;-74
2022/01/27 06:15:55;;;;;;;31.55;12.40;;;;;;;5.24;100.00;101984.53;5065372;28;20131;-72
2022/01/27 06:18:22;;;;;;;30.63;13.90;;;;;;;5.22;100.00;101969.53;5067319;28;20083;-74
2022/01/27 06:20:49;;;;;;;59.15;31.00;;;;;;;5.06;100.00;101974.78;5067484;28;20651;-75
2022/01/27 06:23:15;;;;;;;42.72;16.65;;;;;;;5.31;100.00;101949.13;5069439;28;20048;-71
2022/01/27 06:25:42;;;;;;;45.25;19.35;;;;;;;5.23;100.00;101943.69;5068347;28;20088;-72
2022/01/27 06:28:08;;;;;;;42.30;18.10;;;;;;;5.24;100.00;101967.28;5069355;28;20891;-75
2022/01/27 06:30:35;;;;;;;45.80;18.30;;;;;;;5.31;100.00;101973.06;5065564;28;20057;-73
2022/01/27 06:33:06;;;;;;;23.75;8.65;;;;;;;5.36;100.00;101965.44;5067487;28;20413;-73
2022/01/27 06:35:33;;;;;;;41.55;19.08;;;;;;;5.31;100.00;101982.06;5068421;28;20127;-74
2022/01/27 06:38:00;;;;;;;29.13;12.10;;;;;;;5.44;100.00;101980.25;5067291;28;20155;-74
2022/01/27 06:40:26;;;;;;;48.92;21.20;;;;;;;5.33;100.00;101966.09;5070359;28;20125;-72
2022/01/27 06:42:53;;;;;;;44.33;16.75;;;;;;;5.32;100.00;101958.19;5063402;28;20615;-74
2022/01/27 06:45:19;;;;;;;41.92;15.65;;;;;;;5.43;100.00;101971.19;5071340;28;20067;-74
2022/01/27 06:47:46;;;;;;;52.47;21.48;;;;;;;5.37;100.00;101980.75;5070283;28;20055;-74
2022/01/27 06:50:13;;;;;;;45.53;14.80;;;;;;;5.46;100.00;101974.41;5070421;28;20916;-73
2022/01/27 06:52:41;;;;;;;42.25;16.25;;;;;;;5.47;100.00;101978.75;5070504;28;20052;-73
2022/01/27 06:55:11;;;;;;;40.25;14.77;;;;;;;5.54;100.00;101970.81;5070343;28;20067;-74
2022/01/27 06:57:38;;;;;;;29.33;12.15;;;;;;;5.56;100.00;101968.53;5077887;28;20056;-74
2022/01/27 07:00:07;;;;;;;26.27;10.55;;;;;;;5.59;100.00;101951.38;5074576;28;20063;-73
2022/01/27 07:02:33;;;;;;;41.55;15.75;;;;;;;5.66;100.00;101963.44;5070066;28;20508;-73
2022/01/27 07:05:00;;;;;;;39.75;16.38;;;;;;;5.81;100.00;101956.56;5076527;28;20053;-73
2022/01/27 07:07:27;;;;;;;34.30;15.35;;;;;;;5.76;100.00;101954.00;5071213;28;20099;-74
2022/01/27 07:09:54;;;;;;;41.88;17.30;;;;;;;5.78;100.00;101944.31;5069935;28;20060;-76
2022/01/27 07:12:21;;;;;;;29.08;12.75;;;;;;;5.83;100.00;101952.34;5067967;28;20509;-73
2022/01/27 07:14:47;;;;;;;29.58;11.68;;;;;;;5.87;100.00;101952.50;5069846;28;20083;-74
2022/01/27 07:17:15;;;;;;;36.03;13.80;;;;;;;5.86;100.00;101946.19;5069697;28;20424;-73
2022/01/27 07:19:41;;;;;;;30.80;13.05;;;;;;;5.84;100.00;101950.41;5070368;28;20079;-72
2022/01/27 07:22:08;;;;;;;18.73;8.98;;;;;;;5.85;100.00;101938.28;5068649;28;20405;-74
2022/01/27 07:24:34;;;;;;;13.90;6.93;;;;;;;5.85;100.00;101939.09;5069553;28;20041;-73
2022/01/27 07:27:01;;;;;;;26.63;10.70;;;;;;;5.80;100.00;101947.50;5070279;28;20139;-73
2022/01/27 07:29:28;;;;;;;36.40;13.35;;;;;;;5.79;100.00;101937.66;5068894;28;20546;-73
2022/01/27 07:31:54;;;;;;;28.25;11.20;;;;;;;5.79;100.00;101934.91;5069900;28;20082;-73
2022/01/27 07:34:21;;;;;;;50.67;21.67;;;;;;;5.85;100.00;101932.78;5072550;28;20425;-75
2022/01/27 07:36:48;;;;;;;43.50;20.90;;;;;;;5.68;100.00;101932.91;5070685;28;20048;-74
2022/01/27 07:39:16;;;;;;;40.53;14.98;;;;;;;5.87;100.00;101925.81;5071867;28;20516;-73
2022/01/27 07:41:45;;;;;;;45.78;20.75;;;;;;;5.75;100.00;101928.50;5066533;28;20836;-73
2022/01/27 07:44:12;;;;;;;28.08;11.50;;;;;;;5.86;100.00;101929.72;5068379;28;20121;-72
2022/01/27 07:46:39;;;;;;;43.00;19.67;;;;;;;5.70;100.00;101931.41;5075073;28;20045;-74
2022/01/27 07:49:05;;;;;;;45.72;19.15;;;;;;;5.63;100.00;101936.66;5064415;28;20522;-75
2022/01/27 07:51:32;;;;;;;23.55;8.07;;;;;;;5.62;100.00;101935.06;5076835;28;20063;-73
2022/01/27 07:53:59;;;;;;;45.25;18.92;;;;;;;5.61;100.00;101938.13;5068247;28;20065;-74
2022/01/27 07:56:31;;;;;;;40.70;18.20;;;;;;;5.57;100.00;101932.47;5065908;28;20056;-72
2022/01/27 07:58:57;;;;;;;33.25;12.63;;;;;;;5.59;100.00;101938.47;5069615;28;20550;-72
2022/01/27 08:01:24;;;;;;;49.00;18.65;;;;;;;5.59;100.00;101959.63;5067933;28;20075;-71
2022/01/27 08:03:51;;;;;;;35.28;13.85;;;;;;;5.61;100.00;101949.09;5069087;28;20195;-73
2022/01/27 08:06:18;;;;;;;23.73;9.80;;;;;;;5.62;100.00;101948.78;5068605;28;20489;-72
2022/01/27 08:08:45;;;;;;;28.63;11.68;;;;;;;5.65;100.00;101950.03;5066820;28;20645;-73
2022/01/27 08:11:11;;;;;;;38.05;16.15;;;;;;;5.66;100.00;101935.16;5066615;28;20606;-72
2022/01/27 08:13:38;;;;;;;38.15;15.18;;;;;;;5.64;100.00;101946.50;5067730;28;20055;-75
2022/01/27 08:16:06;;;;;;;37.97;15.27;;;;;;;5.70;100.00;101938.88;5067299;28;20095;-73
2022/01/27 08:18:48;;;;;;;47.60;17.20;;;;;;;5.68;100.00;101927.41;5068938;28;20048;-73
2022/01/27 08:21:15;;;;;;;36.92;12.55;;;;;;;5.68;100.00;101930.16;5067555;28;20182;-72
2022/01/27 08:23:43;;;;;;;38.00;15.52;;;;;;;5.69;100.00;101948.22;5068443;28;20112;-72
2022/01/27 08:26:13;;;;;;;44.90;19.63;;;;;;;5.64;100.00;101945.69;5069155;28;20045;-73
2022/01/27 08:28:54;;;;;;;34.35;12.05;;;;;;;5.64;100.00;101935.53;5067212;28;20080;-73
2022/01/27 08:31:22;;;;;;;35.65;15.27;;;;;;;5.62;100.00;101928.75;5064309;28;20075;-73
2022/01/27 08:33:49;;;;;;;51.15;24.48;;;;;;;5.46;100.00;101936.78;5073823;28;20044;-73
2022/01/27 08:36:17;;;;;;;32.42;12.40;;;;;;;5.58;100.00;101925.88;5068928;28;20113;-72
2022/01/27 08:38:44;;;;;;;31.67;14.57;;;;;;;5.56;100.00;101941.09;5068351;28;20091;-74
2022/01/27 08:41:11;;;;;;;40.20;15.75;;;;;;;5.61;100.00;101938.13;5067951;28;20106;-73
2022/01/27 08:43:37;;;;;;;37.40;16.40;;;;;;;5.54;100.00;101944.16;5082540;28;20629;-73
2022/01/27 08:46:04;;;;;;;57.17;27.95;;;;;;;5.52;100.00;101918.16;5067373;28;20056;-73
2022/01/27 08:48:32;;;;;;;42.33;14.73;;;;;;;5.58;100.00;101925.88;5068878;28;20147;-73
2022/01/27 08:51:00;;;;;;;34.72;15.95;;;;;;;5.61;100.00;101936.19;5066988;28;20131;-74
2022/01/27 08:53:48;;;;;;;37.53;15.07;;;;;;;5.63;100.00;101927.63;5064613;28;20488;-73
2022/01/27 08:56:16;;;;;;;46.95;20.33;;;;;;;5.61;100.00;101922.47;5067624;28;20620;-74
2022/01/27 08:58:43;;;;;;;48.67;23.92;;;;;;;5.74;100.00;101926.88;5066934;28;20159;-74
2022/01/27 09:01:10;;;;;;;53.75;24.10;;;;;;;5.65;100.00;101928.06;5067448;28;20720;-73
2022/01/27 09:03:38;;;;;;;43.85;15.35;;;;;;;5.67;100.00;101921.09;5073389;28;20048;-73
2022/01/27 09:06:06;;;;;;;28.58;12.95;;;;;;;5.71;100.00;101922.06;5067389;28;20052;-73
2022/01/27 09:08:38;;;;;;;53.92;24.15;;;;;;;5.62;100.00;101936.97;5066388;28;20048;-74
2022/01/27 09:11:05;;;;;;;58.20;30.65;;;;;;;5.58;100.00;101925.06;5063319;28;20275;-73
2022/01/27 09:13:31;;;;;;;23.20;10.43;;;;;;;5.74;100.00;101931.56;5076525;28;20048;-72
2022/01/27 09:16:00;;;;;;;49.95;21.13;;;;;;;5.66;100.00;101922.25;5060364;28;20052;-75
2022/01/27 09:18:27;;;;;;;53.75;24.05;;;;;;;5.68;100.00;101930.16;5059014;28;20053;-75
2022/01/27 09:20:56;;;;;;;56.17;24.35;;;;;;;5.68;100.00;101924.66;5055468;28;20053;-76
2022/01/27 09:23:22;;;;;;;41.08;19.45;;;;;;;5.71;100.00;101926.75;5053707;28;20041;-77
2022/01/27 09:25:50;;;;;;;63.85;31.17;;;;;;;5.70;100.00;101939.66;5058122;28;20056;-74
2022/01/27 09:28:16;;;;;;;60.67;32.13;;;;;;;5.72;100.00;101929.16;5051260;28;20056;-73
2022/01/27 09:30:43;;;;;;;54.30;24.95;;;;;;;5.76;100.00;101926.53;5050043;28;20056;-74
2022/01/27 09:33:10;;;;;;;53.92;22.33;;;;;;;5.76;100.00;101912.78;5058408;28;20114;-74
2022/01/27 09:35:37;;;;;;;45.35;22.70;;;;;;;5.79;100.00;101920.38;5062515;28;20072;-75
2022/01/27 09:38:04;;;;;;;60.05;30.00;;;;;;;5.74;100.00;101915.09;5055847;28;20074;-73
2022/01/27 09:40:33;;;;;;;52.58;25.17;;;;;;;5.77;100.00;101903.44;5056753;28;20060;-73
2022/01/27 09:43:03;;;;;;;41.95;17.77;;;;;;;5.91;100.00;101909.47;5057514;28;20060;-74
2022/01/27 09:45:31;;;;;;;32.67;15.13;;;;;;;5.90;100.00;101916.13;5053391;28;20135;-76
2022/01/27 09:48:02;;;;;;;58.00;26.67;;;;;;;5.81;100.00;101915.34;5055111;28;21377;-74
2022/01/27 09:50:59;;;;;;;47.42;22.88;;;;;;;5.90;100.00;101918.88;5057345;28;20151;-75
2022/01/27 09:53:27;;;;;;;58.75;29.75;;;;;;;5.91;100.00;101920.47;5057175;28;20072;-73
2022/01/27 09:55:53;;;;;;;47.03;24.70;;;;;;;5.92;100.00;101928.38;5062855;28;20062;-72
2022/01/27 09:58:20;;;;;;;58.97;26.42;;;;;;;6.01;100.00;101920.84;5064230;28;20105;-73
2022/01/27 10:00:47;;;;;;;65.90;33.83;;;;;;;5.90;100.00;101925.16;5067294;28;20052;-73
2022/01/27 10:03:16;;;;;;;55.63;26.55;;;;;;;5.97;100.00;101916.38;5061031;28;20522;-73
2022/01/27 10:05:44;;;;;;;53.63;24.45;;;;;;;5.98;100.00;101907.00;5064124;28;20131;-73
2022/01/27 10:08:15;;;;;;;44.40;19.23;;;;;;;6.03;100.00;101913.06;5067077;28;20072;-74
2022/01/27 10:10:48;;;;;;;42.85;18.00;;;;;;;6.03;100.00;101909.50;5067328;28;20056;-74
2022/01/27 10:13:39;;;;;;;27.55;11.55;;;;;;;6.08;100.00;101912.88;5065753;28;20056;-73
2022/01/27 10:16:09;;;;;;;29.92;13.20;;;;;;;6.12;100.00;101913.81;5063984;28;20131;-74
2022/01/27 10:18:43;;;;;;;22.55;9.38;;;;;;;6.09;100.00;101906.22;5071172;28;20535;-74
2022/01/27 10:21:12;;;;;;;49.20;21.33;;;;;;;6.09;100.00;101903.47;5069370;28;20067;-72
2022/01/27 10:23:40;;;;;;;38.30;17.73;;;;;;;6.11;100.00;101914.13;5070014;28;20418;-71
2022/01/27 10:26:23;;;;;;;33.40;14.95;;;;;;;6.10;100.00;101913.31;5065124;28;20102;-72
2022/01/27 10:29:07;;;;;;;42.03;19.90;;;;;;;6.09;100.00;101927.41;5069535;28;20124;-75
2022/01/27 10:31:38;;;;;;;16.75;7.70;;;;;;;6.19;100.00;101913.25;5061794;28;20143;-73
2022/01/27 10:34:07;;;;;;;41.50;17.00;;;;;;;6.16;100.00;101911.16;5061400;28;20065;-71
2022/01/27 10:36:36;;;;;;;50.67;24.77;;;;;;;6.13;100.00;101900.84;5058153;28;20059;-75
2022/01/27 10:39:09;;;;;;;40.25;19.23;;;;;;;6.23;100.00;101901.22;5061434;28;20075;-72
2022/01/27 10:41:39;;;;;;;34.45;14.75;;;;;;;6.25;100.00;101898.97;5066381;28;20127;-74
2022/01/27 10:44:12;;;;;;;48.25;26.02;;;;;;;6.25;100.00;101903.63;5059929;28;20097;-72
2022/01/27 10:46:49;;;;;;;33.22;16.65;;;;;;;6.33;100.00;101900.81;5059205;28;20084;-72
2022/01/27 10:49:26;;;;;;;27.33;11.15;;;;;;;6.32;100.00;101901.13;5058105;28;20089;-72
2022/01/27 10:51:55;;;;;;;33.22;14.00;;;;;;;6.25;100.00;101881.66;5061369;28;20049;-76
2022/01/27 10:54:39;;;;;;;34.17;14.98;;;;;;;6.32;100.00;101876.41;5061195;28;20147;-74
2022/01/27 10:57:16;;;;;;;48.38;24.05;;;;;;;6.30;100.00;101895.16;5060309;28;20072;-73
2022/01/27 10:59:43;;;;;;;29.48;12.30;;;;;;;6.38;100.00;101888.78;5065019;28;21425;-70
2022/01/27 11:02:12;;;;;;;46.72;23.05;;;;;;;6.42;100.00;101886.97;5064618;28;20055;-72
2022/01/27 11:04:43;;;;;;;26.02;12.82;;;;;;;6.35;100.00;101900.47;5064311;28;20558;-74
2022/01/27 11:07:12;;;;;;;46.13;21.48;;;;;;;6.44;100.00;101890.97;5058671;28;20152;-72
2022/01/27 11:09:43;;;;;;;31.70;13.68;;;;;;;6.44;100.00;101893.72;5058669;28;20524;-73
2022/01/27 11:12:17;;;;;;;34.22;15.73;;;;;;;6.47;100.00;101889.47;5059693;28;20581;-73
2022/01/27 11:14:48;;;;;;;21.33;9.60;;;;;;;6.46;100.00;101887.88;5061600;28;20516;-74
2022/01/27 11:17:19;;;;;;;20.00;8.95;;;;;;;6.48;100.00;101891.88;5061596;28;20317;-72
2022/01/27 11:25:19;;;;;;;;;;;;;;;;;;;;;
2022/01/27 11:27:28;;;;;;;43.58;22.10;;;;;;;6.55;100.00;101872.09;5060426;28;20126;-76
2022/01/27 11:30:17;;;;;;;33.35;16.98;;;;;;;6.64;100.00;101872.75;5064679;28;20472;-71
2022/01/27 11:32:56;;;;;;;25.08;9.88;;;;;;;6.63;100.00;101865.66;5069764;28;20129;-72
2022/01/27 11:35:43;;;;;;;46.28;21.13;;;;;;;6.70;100.00;101869.47;5076336;28;20572;-74
2022/01/27 11:38:11;;;;;;;35.88;18.08;;;;;;;6.73;100.00;101876.22;5058883;28;20139;-75
2022/01/27 11:40:40;;;;;;;36.92;19.48;;;;;;;6.80;100.00;101859.94;5055361;28;20136;-73
2022/01/27 11:43:14;;;;;;;34.83;15.80;;;;;;;6.76;100.00;101867.28;5058273;28;20130;-72
2022/01/27 11:45:45;;;;;;;32.63;13.37;;;;;;;6.80;100.00;101857.19;5064961;28;20519;-70
2022/01/27 11:48:23;;;;;;;30.10;14.60;;;;;;;6.83;100.00;101848.25;5067340;28;20056;-71
2022/01/27 11:51:09;;;;;;;41.85;18.77;;;;;;;6.86;100.00;101845.63;5070017;28;20398;-71
2022/01/27 11:53:45;;;;;;;45.28;21.63;;;;;;;6.90;100.00;101837.47;5071966;28;20131;-72
2022/01/27 11:56:26;;;;;;;41.38;20.70;;;;;;;6.87;100.00;101838.16;5049916;28;20421;-69
2022/01/27 11:58:55;;;;;;;34.20;15.23;;;;;;;6.91;100.00;101839.06;5068230;28;20054;-73
2022/01/27 12:01:24;;;;;;;26.08;12.95;;;;;;;6.89;100.00;101847.66;5069703;28;20075;-73
2022/01/27 12:04:04;;;;;;;45.70;20.05;;;;;;;6.91;100.00;101837.13;5068113;28;20094;-74
2022/01/27 12:06:34;;;;;;;30.58;15.02;;;;;;;6.99;100.00;101840.91;5069858;28;20056;-72